createdAt,value
2023-02-22T00:02:13.306Z,9.90
2023-02-22T00:04:41.441Z,9.89
2023-02-22T00:07:09.617Z,9.89
2023-02-22T00:09:37.592Z,9.91
2023-02-22T00:12:05.766Z,9.90
2023-02-22T00:14:33.772Z,9.90
2023-02-22T00:17:02.565Z,9.92
2023-02-22T00:19:31.324Z,9.94
2023-02-22T00:22:00.332Z,9.97
2023-02-22T00:24:29.640Z,10.00
2023-02-22T00:26:58.183Z,10.00
2023-02-22T00:29:26.864Z,10.00
2023-02-22T00:31:55.156Z,9.99
2023-02-22T00:34:24.402Z,9.96
2023-02-22T00:36:52.541Z,9.93
2023-02-22T00:39:20.797Z,9.91
2023-02-22T00:41:50.050Z,9.87
2023-02-22T00:44:18.262Z,9.88
2023-02-22T00:46:46.748Z,9.85
2023-02-22T00:49:17.069Z,9.83
2023-02-22T00:51:45.548Z,9.77
2023-02-22T00:54:14.655Z,9.79
2023-02-22T00:56:43.135Z,9.80
2023-02-22T00:59:11.609Z,9.79
2023-02-22T01:01:39.614Z,9.79
2023-02-22T01:04:07.869Z,9.79
2023-02-22T01:06:36.640Z,9.77
2023-02-22T01:09:05.236Z,9.77
2023-02-22T01:11:34.530Z,9.75
2023-02-22T01:14:02.602Z,9.72
2023-02-22T01:16:30.680Z,9.70
2023-02-22T01:19:01.506Z,9.68
2023-02-22T01:21:30.294Z,9.69
2023-02-22T01:23:58.257Z,9.71
2023-02-22T01:26:27.461Z,9.72
2023-02-22T01:28:55.389Z,9.73
2023-02-22T01:31:24.283Z,9.73
2023-02-22T01:33:52.421Z,9.74
2023-02-22T01:36:20.878Z,9.72
2023-02-22T01:38:48.865Z,9.69
2023-02-22T01:41:18.556Z,9.67
2023-02-22T01:43:46.717Z,9.65
2023-02-22T01:46:23.361Z,9.66
2023-02-22T01:48:56.900Z,9.68
2023-02-22T01:51:30.817Z,9.69
2023-02-22T01:54:07.164Z,9.71
2023-02-22T01:56:39.527Z,9.71
2023-02-22T01:59:11.537Z,9.71
2023-02-22T02:01:44.788Z,9.71
2023-02-22T02:04:19.621Z,9.72
2023-02-22T02:06:48.618Z,9.75
2023-02-22T02:09:31.854Z,9.77
2023-02-22T02:12:02.765Z,9.77
2023-02-22T02:14:32.368Z,9.78
2023-02-22T02:17:07.207Z,9.75
2023-02-22T02:20:08.560Z,9.75
2023-02-22T02:22:45.156Z,9.72
2023-02-22T02:25:32.388Z,9.69
2023-02-22T02:28:37.925Z,9.70
2023-02-22T02:31:41.618Z,9.69
2023-02-22T02:34:22.836Z,9.70
2023-02-22T02:37:33.736Z,9.69
2023-02-22T02:40:22.256Z,9.72
2023-02-22T02:43:27.594Z,9.73
2023-02-22T02:46:04.470Z,9.72
2023-02-22T02:48:35.511Z,9.69
2023-02-22T02:51:08.951Z,9.70
2023-02-22T02:53:41.230Z,9.71
2023-02-22T02:56:09.353Z,9.73
2023-02-22T02:58:49.189Z,9.74
2023-02-22T03:01:46.429Z,9.76
2023-02-22T03:04:15.130Z,9.79
2023-02-22T03:06:52.317Z,9.82
2023-02-22T03:09:49.498Z,9.84
2023-02-22T03:12:32.309Z,9.79
2023-02-22T03:15:22.692Z,9.76
2023-02-22T03:17:59.605Z,9.73
2023-02-22T03:20:50.778Z,9.68
2023-02-22T03:23:32.981Z,9.65
2023-02-22T03:26:16.423Z,9.64
2023-02-22T03:28:49.370Z,9.66
2023-02-22T03:31:23.704Z,9.65
2023-02-22T03:34:15.621Z,9.63
2023-02-22T03:36:50.062Z,9.64
2023-02-22T03:39:20.428Z,9.62
2023-02-22T03:41:51.511Z,9.58
2023-02-22T03:44:26.678Z,9.58
2023-02-22T03:46:57.647Z,9.56
2023-02-22T03:49:47.229Z,9.54
2023-02-22T03:52:15.826Z,9.55
2023-02-22T03:54:44.474Z,9.51
2023-02-22T03:57:22.592Z,9.52
2023-02-22T03:59:53.893Z,9.51
2023-02-22T04:02:23.910Z,9.51
2023-02-22T04:04:52.517Z,9.46
2023-02-22T04:07:20.595Z,9.46
2023-02-22T04:09:49.992Z,9.44
2023-02-22T04:12:18.174Z,9.44
2023-02-22T04:14:56.109Z,9.43
2023-02-22T04:17:24.561Z,9.44
2023-02-22T04:19:52.949Z,9.33
2023-02-22T04:22:22.956Z,9.27
2023-02-22T04:24:51.159Z,9.23
2023-02-22T04:27:19.507Z,9.16
2023-02-22T04:29:47.682Z,9.10
2023-02-22T04:32:16.687Z,9.08
2023-02-22T04:34:44.750Z,9.03
2023-02-22T04:37:13.121Z,8.98
2023-02-22T04:39:41.660Z,8.85
2023-02-22T04:42:10.815Z,8.71
2023-02-22T04:44:39.221Z,8.58
2023-02-22T04:47:07.250Z,8.54
2023-02-22T04:49:36.847Z,8.54
2023-02-22T04:52:06.050Z,8.55
2023-02-22T04:54:37.008Z,8.60
2023-02-22T04:57:05.295Z,8.62
2023-02-22T04:59:35.110Z,8.61
2023-02-22T05:02:03.829Z,8.62
2023-02-22T05:04:31.912Z,8.62
2023-02-22T05:07:00.033Z,8.61
2023-02-22T05:09:28.217Z,8.64
2023-02-22T05:11:56.165Z,8.66
2023-02-22T05:14:26.878Z,8.67
2023-02-22T05:17:00.701Z,8.69
2023-02-22T05:19:28.773Z,8.73
2023-02-22T05:21:56.750Z,8.74
2023-02-22T05:24:25.032Z,8.75
2023-02-22T05:26:53.508Z,8.75
2023-02-22T05:29:21.684Z,8.75
2023-02-22T05:31:49.837Z,8.68
2023-02-22T05:34:18.231Z,8.59
2023-02-22T05:36:46.713Z,8.55
2023-02-22T05:39:14.991Z,8.52
2023-02-22T05:41:43.268Z,8.45
2023-02-22T05:44:11.558Z,8.44
2023-02-22T05:46:39.702Z,8.39
2023-02-22T05:49:07.931Z,8.39
2023-02-22T05:51:36.291Z,8.35
2023-02-22T05:54:04.483Z,8.33
2023-02-22T05:56:32.826Z,8.34
2023-02-22T05:59:01.106Z,8.33
2023-02-22T06:01:29.271Z,8.36
2023-02-22T06:03:57.304Z,8.33
2023-02-22T06:06:25.255Z,8.33
2023-02-22T06:08:53.347Z,8.33
2023-02-22T06:11:21.451Z,8.41
2023-02-22T06:13:51.750Z,8.44
2023-02-22T06:16:21.638Z,8.43
2023-02-22T06:18:50.709Z,8.44
2023-02-22T06:21:19.161Z,8.45
2023-02-22T06:23:47.662Z,8.52
2023-02-22T06:26:17.800Z,8.56
2023-02-22T06:28:49.391Z,8.59
2023-02-22T06:31:17.670Z,8.62
2023-02-22T06:33:45.925Z,8.69
2023-02-22T06:36:14.180Z,8.74
2023-02-22T06:38:42.714Z,8.74
2023-02-22T06:41:10.695Z,8.79
2023-02-22T06:43:38.669Z,8.83
2023-02-22T06:46:11.291Z,8.84
2023-02-22T06:48:40.561Z,8.90
2023-02-22T06:51:09.868Z,8.95
2023-02-22T06:53:38.239Z,9.00
2023-02-22T06:56:06.833Z,9.09
2023-02-22T06:58:35.201Z,9.10
2023-02-22T07:01:04.315Z,9.19
2023-02-22T07:03:32.619Z,9.20
2023-02-22T07:06:00.638Z,9.26
2023-02-22T07:08:29.553Z,9.25
2023-02-22T07:10:57.807Z,9.29
2023-02-22T07:13:25.985Z,9.35
2023-02-22T07:15:54.063Z,9.43
2023-02-22T07:18:22.445Z,9.45
2023-02-22T07:20:50.616Z,9.55
2023-02-22T07:23:18.790Z,9.71
2023-02-22T07:25:46.861Z,9.77
2023-02-22T07:28:15.031Z,9.87
2023-02-22T07:30:43.812Z,9.96
2023-02-22T07:33:13.531Z,10.02
2023-02-22T07:35:50.142Z,10.32
2023-02-22T07:38:20.540Z,10.70
2023-02-22T07:40:48.782Z,10.82
2023-02-22T07:43:28.146Z,10.84
2023-02-22T07:45:59.206Z,11.03
2023-02-22T07:48:29.089Z,11.26
2023-02-22T07:50:58.180Z,11.36
2023-02-22T07:53:30.352Z,11.26
2023-02-22T07:55:59.746Z,11.26
2023-02-22T07:58:29.553Z,11.28
2023-02-22T08:00:58.432Z,11.21
2023-02-22T08:03:26.872Z,11.13
2023-02-22T08:05:57.820Z,11.08
2023-02-22T08:08:25.861Z,11.16
2023-02-22T08:10:53.940Z,11.36
2023-02-22T08:13:23.338Z,11.48
2023-02-22T08:15:53.871Z,11.54
2023-02-22T08:18:23.889Z,11.55
2023-02-22T08:20:53.420Z,11.74
2023-02-22T08:23:25.469Z,12.01
2023-02-22T08:25:53.835Z,12.27
2023-02-22T08:28:24.238Z,12.45
2023-02-22T08:30:52.890Z,12.60
2023-02-22T08:33:21.323Z,12.70
2023-02-22T08:35:50.531Z,12.85
2023-02-22T08:38:23.450Z,13.01
2023-02-22T08:40:51.938Z,13.10
2023-02-22T08:43:21.260Z,13.29
2023-02-22T08:45:50.085Z,13.63
2023-02-22T08:48:19.152Z,14.07
2023-02-22T08:50:47.450Z,14.62
2023-02-22T08:53:16.897Z,15.14
2023-02-22T08:55:45.337Z,15.29
2023-02-22T08:58:14.343Z,15.34
2023-02-22T09:00:44.728Z,15.52
2023-02-22T09:03:15.140Z,15.64
2023-02-22T09:05:44.859Z,15.82
2023-02-22T09:08:13.484Z,15.94
2023-02-22T09:10:41.936Z,15.90
2023-02-22T09:13:09.940Z,15.87
2023-02-22T09:15:39.894Z,15.96
2023-02-22T09:18:10.114Z,16.15
2023-02-22T09:20:38.097Z,16.44
2023-02-22T09:23:09.893Z,16.70
2023-02-22T09:25:41.744Z,16.64
2023-02-22T09:28:11.459Z,16.47
2023-02-22T09:30:39.624Z,16.49
2023-02-22T09:33:14.230Z,16.59
2023-02-22T09:35:47.453Z,16.59
2023-02-22T09:38:23.123Z,16.39
2023-02-22T09:40:57.222Z,15.96
2023-02-22T09:44:00.008Z,15.47
2023-02-22T09:46:30.885Z,15.11
2023-02-22T09:49:07.728Z,14.90
2023-02-22T09:51:55.746Z,14.68
2023-02-22T09:54:34.359Z,14.51
2023-02-22T09:57:10.874Z,14.44
2023-02-22T10:00:14.340Z,14.31
2023-02-22T10:03:09.289Z,14.27
2023-02-22T10:05:39.982Z,14.30
2023-02-22T10:08:13.803Z,14.35
2023-02-22T10:10:48.889Z,14.45
2023-02-22T10:13:42.258Z,14.66
2023-02-22T10:16:32.807Z,14.98
2023-02-22T10:19:01.425Z,15.42
2023-02-22T10:21:53.801Z,15.75
2023-02-22T10:24:40.614Z,16.28
2023-02-22T10:27:29.355Z,16.82
2023-02-22T10:30:24.921Z,17.39
2023-02-22T10:33:22.727Z,18.13
2023-02-22T10:35:51.635Z,18.72
2023-02-22T10:38:27.434Z,19.07
2023-02-22T10:41:10.824Z,19.34
2023-02-22T10:43:41.119Z,19.69
2023-02-22T10:46:15.568Z,19.83
2023-02-22T10:48:47.856Z,20.21
2023-02-22T10:51:16.129Z,20.65
2023-02-22T10:53:45.849Z,20.86
2023-02-22T10:56:22.358Z,20.96
2023-02-22T10:58:57.820Z,21.09
2023-02-22T11:01:32.607Z,21.05
2023-02-22T11:04:10.491Z,21.19
2023-02-22T11:06:40.894Z,21.56
2023-02-22T11:09:15.900Z,22.22
2023-02-22T11:11:49.304Z,23.63
2023-02-22T11:14:31.079Z,25.48
2023-02-22T11:17:00.885Z,27.65
2023-02-22T11:19:50.442Z,29.46
2023-02-22T11:22:55.046Z,31.12
2023-02-22T11:25:27.947Z,32.69
2023-02-22T11:28:09.353Z,33.49
2023-02-22T11:30:38.589Z,34.20
2023-02-22T11:33:15.606Z,34.83
2023-02-22T11:36:05.075Z,35.23
2023-02-22T11:38:37.025Z,34.95
2023-02-22T11:41:08.016Z,34.89
2023-02-22T11:43:36.135Z,34.96
2023-02-22T11:46:13.259Z,35.04
2023-02-22T11:48:48.578Z,35.15
2023-02-22T11:51:35.752Z,34.93
2023-02-22T11:54:31.378Z,34.72
2023-02-22T11:57:07.264Z,34.45
2023-02-22T11:59:48.802Z,34.28
2023-02-22T12:02:33.388Z,34.23
2023-02-22T12:05:37.287Z,34.06
2023-02-22T12:08:25.948Z,34.07
2023-02-22T12:10:55.481Z,33.81
2023-02-22T12:13:42.138Z,33.39
2023-02-22T12:16:44.363Z,33.23
2023-02-22T12:19:25.437Z,33.11
2023-02-22T12:21:58.520Z,32.90
2023-02-22T12:24:34.413Z,32.57
2023-02-22T12:27:10.240Z,31.19
2023-02-22T12:29:47.901Z,30.69
2023-02-22T12:32:29.288Z,30.34
2023-02-22T12:35:10.129Z,30.92
2023-02-22T12:38:09.538Z,31.34
2023-02-22T12:40:45.165Z,29.88
2023-02-22T12:43:16.922Z,28.80
2023-02-22T12:46:00.304Z,27.30
2023-02-22T12:48:31.874Z,25.73
2023-02-22T12:51:22.099Z,24.26
2023-02-22T12:54:02.078Z,22.76
2023-02-22T12:56:46.684Z,21.69
2023-02-22T12:59:14.635Z,20.88
2023-02-22T13:01:45.951Z,20.18
2023-02-22T13:04:20.973Z,19.53
2023-02-22T13:06:58.386Z,19.06
2023-02-22T13:09:29.095Z,18.50
2023-02-22T13:12:19.402Z,17.94
2023-02-22T13:15:09.621Z,17.35
2023-02-22T13:17:55.455Z,17.73
2023-02-22T13:20:29.273Z,18.49
2023-02-22T13:23:03.373Z,18.93
2023-02-22T13:25:34.411Z,18.44
2023-02-22T13:28:33.370Z,17.85
2023-02-22T13:31:11.441Z,17.25
2023-02-22T13:33:50.215Z,16.84
2023-02-22T13:36:37.765Z,16.62
2023-02-22T13:39:28.662Z,16.58
2023-02-22T13:42:02.747Z,18.51
2023-02-22T13:44:36.657Z,19.20
2023-02-22T13:47:41.878Z,19.80
2023-02-22T13:50:49.346Z,19.90
2023-02-22T13:53:22.943Z,20.85
2023-02-22T13:55:58.574Z,21.20
2023-02-22T13:58:27.465Z,21.57
2023-02-22T14:00:59.626Z,21.73
2023-02-22T14:03:36.057Z,21.64
2023-02-22T14:06:06.006Z,21.54
2023-02-22T14:08:33.955Z,21.57
2023-02-22T14:11:12.751Z,21.64
2023-02-22T14:13:57.229Z,21.75
2023-02-22T14:16:27.848Z,21.45
2023-02-22T14:19:15.454Z,21.19
2023-02-22T14:22:06.294Z,21.34
2023-02-22T14:24:46.907Z,21.26
2023-02-22T14:27:17.625Z,20.55
2023-02-22T14:30:00.557Z,20.27
2023-02-22T14:32:35.094Z,20.26
2023-02-22T14:35:26.515Z,20.09
2023-02-22T14:38:01.006Z,19.72
2023-02-22T14:40:36.448Z,19.33
2023-02-22T14:43:15.224Z,18.85
2023-02-22T14:45:52.322Z,18.21
2023-02-22T22:47:28.793Z,3.97
2023-02-22T22:50:01.660Z,3.94
2023-02-22T22:52:34.025Z,3.91
2023-02-22T22:55:03.070Z,3.88
2023-02-22T22:57:31.009Z,3.85
2023-02-22T23:00:00.513Z,3.83
2023-02-22T23:02:30.897Z,3.82
2023-02-22T23:04:59.116Z,3.79
2023-02-22T23:07:27.219Z,3.79
2023-02-22T23:09:56.662Z,3.76
2023-02-22T23:12:31.627Z,3.77
2023-02-22T23:14:59.691Z,3.74
2023-02-22T23:17:31.672Z,3.72
2023-02-22T23:19:59.825Z,3.72
2023-02-22T23:22:28.110Z,3.69
2023-02-22T23:24:58.126Z,3.69
2023-02-22T23:27:26.194Z,3.66
2023-02-22T23:29:54.215Z,3.64
2023-02-22T23:32:22.370Z,3.64
2023-02-22T23:34:50.645Z,3.63
2023-02-22T23:37:20.908Z,3.63
2023-02-22T23:39:51.207Z,3.63
2023-02-22T23:42:19.339Z,3.63
2023-02-22T23:44:48.113Z,3.62
2023-02-22T23:47:16.400Z,3.61
2023-02-22T23:49:49.658Z,3.60
2023-02-22T23:52:24.420Z,3.57
2023-02-22T23:54:54.239Z,3.55
2023-02-22T23:57:24.873Z,3.54
2023-02-22T23:59:52.943Z,3.53
